createdAt,value
2022-10-01T00:01:34.233Z,25.30
2022-10-01T00:06:39.972Z,26.40
2022-10-01T00:11:45.669Z,27.30
2022-10-01T00:16:51.248Z,26.80
2022-10-01T00:21:56.636Z,28.20
2022-10-01T00:27:02.080Z,30.10
2022-10-01T00:32:07.335Z,28.70
2022-10-01T00:37:12.648Z,28.90
2022-10-01T00:42:22.140Z,28.80
2022-10-01T00:47:28.557Z,28.30
2022-10-01T00:52:36.183Z,27.80
2022-10-01T00:57:42.241Z,27.70
2022-10-01T01:02:47.846Z,28.10
2022-10-01T01:07:54.247Z,27.80
2022-10-01T01:13:13.006Z,28.80
2022-10-01T01:18:20.457Z,27.00
2022-10-01T01:23:42.660Z,27.10
2022-10-01T01:28:50.991Z,26.70
2022-10-01T01:33:57.291Z,23.40
2022-10-01T01:39:04.318Z,23.10
2022-10-01T01:44:12.241Z,23.30
2022-10-01T01:49:20.241Z,24.90
2022-10-01T01:54:26.217Z,25.40
2022-10-01T01:59:32.469Z,25.10
2022-10-01T02:04:39.516Z,24.10
2022-10-01T02:09:50.257Z,23.40
2022-10-01T02:14:57.900Z,24.00
2022-10-01T02:20:07.360Z,23.70
2022-10-01T02:25:14.413Z,25.40
2022-10-01T02:30:19.912Z,25.90
2022-10-01T02:35:25.655Z,27.20
2022-10-01T02:40:32.725Z,31.30
2022-10-01T02:45:38.476Z,30.00
2022-10-01T02:50:45.122Z,28.60
2022-10-01T02:55:51.612Z,31.60
2022-10-01T03:00:59.646Z,30.30
2022-10-01T03:06:05.062Z,27.60
2022-10-01T03:11:12.657Z,28.60
2022-10-01T03:16:18.145Z,28.50
2022-10-01T03:21:23.624Z,26.80
2022-10-01T03:26:29.002Z,25.70
2022-10-01T03:31:34.754Z,26.20
2022-10-01T03:36:42.681Z,27.60
2022-10-01T03:41:48.213Z,25.00
2022-10-01T03:46:53.762Z,24.00
2022-10-01T03:51:59.299Z,23.70
2022-10-01T03:57:04.869Z,23.50
2022-10-01T04:02:12.035Z,24.30
2022-10-01T04:07:17.912Z,23.30
2022-10-01T04:12:23.797Z,23.30
2022-10-01T04:17:29.433Z,24.50
2022-10-01T04:22:39.840Z,23.30
2022-10-01T04:27:57.924Z,21.30
2022-10-01T04:33:04.396Z,23.60
2022-10-01T04:38:17.282Z,25.20
2022-10-01T04:43:22.692Z,24.40
2022-10-01T04:48:27.946Z,22.20
2022-10-01T04:53:33.977Z,23.10
2022-10-01T04:58:39.476Z,20.40
2022-10-01T05:03:44.910Z,21.60
2022-10-01T05:08:50.278Z,20.70
2022-10-01T05:13:57.259Z,23.10
2022-10-01T05:19:02.855Z,22.60
2022-10-01T05:24:08.289Z,21.20
2022-10-01T05:29:15.285Z,21.40
2022-10-01T05:34:20.688Z,20.90
2022-10-01T05:39:26.127Z,20.10
2022-10-01T05:44:37.874Z,21.70
2022-10-01T05:49:44.715Z,20.90
2022-10-01T05:54:50.135Z,20.40
2022-10-01T05:59:56.415Z,21.40
2022-10-01T06:05:01.828Z,19.90
2022-10-01T06:10:07.919Z,21.60
2022-10-01T06:15:14.114Z,20.50
2022-10-01T06:20:20.401Z,19.80
2022-10-01T06:25:26.149Z,19.70
2022-10-01T06:30:32.571Z,20.60
2022-10-01T06:35:43.735Z,19.10
2022-10-01T06:40:53.928Z,18.00
2022-10-01T06:46:04.038Z,18.60
2022-10-01T06:51:09.749Z,18.20
2022-10-01T06:56:15.247Z,18.50
2022-10-01T07:01:22.593Z,20.80
2022-10-01T07:06:28.191Z,19.90
2022-10-01T07:11:33.754Z,20.10
2022-10-01T07:16:40.508Z,21.00
2022-10-01T07:21:48.906Z,20.20
2022-10-01T07:26:55.675Z,21.00
2022-10-01T07:32:01.867Z,21.50
2022-10-01T07:37:10.366Z,21.40
2022-10-01T07:42:15.637Z,20.00
2022-10-01T07:47:21.021Z,20.50
2022-10-01T07:52:30.411Z,20.40
2022-10-01T07:57:35.817Z,23.00
2022-10-01T08:02:41.218Z,23.70
2022-10-01T08:07:47.808Z,24.60
2022-10-01T08:12:53.161Z,24.60
2022-10-01T08:18:01.573Z,25.20
2022-10-01T08:23:08.367Z,23.60
2022-10-01T08:28:13.824Z,23.00
2022-10-01T08:33:19.248Z,24.00
2022-10-01T08:38:25.120Z,24.30
2022-10-01T08:43:32.062Z,22.10
2022-10-01T08:48:41.176Z,21.00
2022-10-01T08:53:48.837Z,22.60
2022-10-01T08:58:58.599Z,21.80
2022-10-01T09:04:05.946Z,20.60
2022-10-01T09:09:24.604Z,20.60
2022-10-01T09:14:38.293Z,22.00
2022-10-01T09:19:55.087Z,21.20
2022-10-01T09:25:02.966Z,22.50
2022-10-01T09:30:12.028Z,21.40
2022-10-01T09:35:24.766Z,16.70
2022-10-01T09:40:35.393Z,16.50
2022-10-01T09:45:41.330Z,14.90
2022-10-01T09:50:50.518Z,15.10
2022-10-01T09:55:59.866Z,13.80
2022-10-01T10:01:06.078Z,13.50
2022-10-01T10:06:11.391Z,12.90
2022-10-01T10:11:23.769Z,12.80
2022-10-01T10:16:31.882Z,11.70
2022-10-01T10:21:40.527Z,12.80
2022-10-01T10:26:54.845Z,12.60
2022-10-01T10:32:00.859Z,12.60
2022-10-01T10:37:07.981Z,9.10
2022-10-01T10:42:17.006Z,9.20
2022-10-01T10:47:23.240Z,8.00
2022-10-01T10:52:30.929Z,12.30
2022-10-01T10:57:36.778Z,18.00
2022-10-01T11:02:49.577Z,17.50
2022-10-01T11:07:56.715Z,22.40
2022-10-01T11:13:07.058Z,15.30
2022-10-01T11:18:23.769Z,65.00
2022-10-01T11:23:56.323Z,11.90
2022-10-01T11:29:08.165Z,13.00
2022-10-01T11:34:21.296Z,9.40
2022-10-01T11:39:28.592Z,6.50
2022-10-01T11:44:37.186Z,7.30
2022-10-01T11:49:54.767Z,7.40
2022-10-01T11:55:23.855Z,7.60
2022-10-01T12:00:30.002Z,5.30
2022-10-01T12:05:35.658Z,3.20
2022-10-01T12:10:41.955Z,12.10
2022-10-01T12:15:50.539Z,5.10
2022-10-01T12:20:56.890Z,4.90
2022-10-01T12:26:06.375Z,4.90
2022-10-01T12:31:17.476Z,5.20
2022-10-01T12:36:26.822Z,7.90
2022-10-01T12:41:38.505Z,2.90
2022-10-01T12:46:46.413Z,2.40
2022-10-01T12:51:56.168Z,2.50
2022-10-01T12:57:05.610Z,3.50
2022-10-01T13:02:22.717Z,2.50
2022-10-01T13:07:42.834Z,1.90
2022-10-01T13:12:56.698Z,1.80
2022-10-01T13:18:06.199Z,2.80
2022-10-01T13:23:18.631Z,10.10
2022-10-01T13:28:26.839Z,3.00
2022-10-01T13:33:33.171Z,4.30
2022-10-01T13:38:42.900Z,2.80
2022-10-01T13:43:58.420Z,1.90
2022-10-01T13:49:09.268Z,3.10
2022-10-01T13:54:22.349Z,3.10
2022-10-01T13:59:33.249Z,5.10
2022-10-01T14:04:39.629Z,3.70
2022-10-01T14:09:46.434Z,3.90
2022-10-01T14:15:11.256Z,2.50
2022-10-01T14:20:20.039Z,2.40
2022-10-01T14:25:30.015Z,2.90
2022-10-01T14:30:39.468Z,2.20
2022-10-01T14:35:47.167Z,2.60
2022-10-01T14:40:53.211Z,3.20
2022-10-01T14:45:59.402Z,2.70
2022-10-01T14:51:06.125Z,2.80
2022-10-01T14:56:13.824Z,3.80
2022-10-01T15:01:20.410Z,2.80
2022-10-01T15:06:28.132Z,19.90
2022-10-01T15:11:35.125Z,2.60
2022-10-01T15:16:40.537Z,2.20
2022-10-01T15:21:49.857Z,3.00
2022-10-01T15:26:55.906Z,3.40
2022-10-01T15:32:03.135Z,3.70
2022-10-01T15:37:08.602Z,3.50
2022-10-01T15:42:23.526Z,2.90
2022-10-01T15:47:33.078Z,3.70
2022-10-01T15:52:53.426Z,4.10
2022-10-01T15:58:02.759Z,4.30
2022-10-01T16:03:18.268Z,6.00
2022-10-01T16:08:25.227Z,7.00
2022-10-01T16:13:36.673Z,14.80
2022-10-01T16:23:48.061Z,3.10
2022-10-01T16:28:56.196Z,3.70
2022-10-01T16:34:03.875Z,2.80
2022-10-01T16:39:12.660Z,5.00
2022-10-01T16:44:19.502Z,3.00
2022-10-01T16:49:27.909Z,3.10
2022-10-01T16:54:33.753Z,3.20
2022-10-01T16:59:39.653Z,2.70
2022-10-01T17:04:45.044Z,6.00
2022-10-01T17:09:54.633Z,4.40
2022-10-01T17:15:01.663Z,17.90
2022-10-01T17:20:08.293Z,7.40
2022-10-01T17:25:17.189Z,4.80
2022-10-01T17:30:25.268Z,3.10
2022-10-01T17:35:31.097Z,6.70
2022-10-01T17:40:38.225Z,6.60
2022-10-01T17:45:43.827Z,6.00
2022-10-01T17:50:50.949Z,14.20
2022-10-01T17:55:56.804Z,7.30
2022-10-01T18:01:02.748Z,29.70
2022-10-01T18:06:09.985Z,8.90
2022-10-01T18:11:15.350Z,4.20
2022-10-01T18:16:21.156Z,5.10
2022-10-01T18:21:26.772Z,4.90
2022-10-01T18:26:32.530Z,6.00
2022-10-01T18:31:40.742Z,6.30
2022-10-01T18:36:50.924Z,5.00
2022-10-01T18:41:57.632Z,6.60
2022-10-01T18:47:11.252Z,4.50
2022-10-01T18:52:20.949Z,7.60
2022-10-01T18:57:33.327Z,6.30
2022-10-01T19:03:03.906Z,4.50
2022-10-01T19:08:25.621Z,5.10
2022-10-01T19:13:35.296Z,6.20
2022-10-01T19:18:55.154Z,19.20
2022-10-01T19:24:15.918Z,10.70
2022-10-01T19:29:29.885Z,5.00
2022-10-01T19:34:39.055Z,4.70
2022-10-01T19:39:46.310Z,4.70
2022-10-01T19:44:54.570Z,12.20
2022-10-01T19:50:02.583Z,7.40
2022-10-01T19:55:14.134Z,13.70
2022-10-01T20:05:28.344Z,6.90
2022-10-01T20:10:38.666Z,7.20
2022-10-01T20:15:48.152Z,5.90
2022-10-01T20:21:00.227Z,4.50
2022-10-01T20:26:09.211Z,9.10
2022-10-01T20:31:17.289Z,24.40
2022-10-01T20:36:31.746Z,14.80
2022-10-01T20:41:45.320Z,11.50
2022-10-01T20:46:51.969Z,5.20
2022-10-01T20:52:00.459Z,12.10
2022-10-01T20:57:09.793Z,28.30
2022-10-01T21:02:30.862Z,19.70
2022-10-01T21:07:39.045Z,6.00
2022-10-01T21:12:47.691Z,9.10
2022-10-01T21:17:57.736Z,8.20
2022-10-01T21:23:11.440Z,7.00
2022-10-01T21:28:24.108Z,9.40
2022-10-01T21:33:33.689Z,8.00
2022-10-01T21:38:41.476Z,6.70
2022-10-01T21:43:58.729Z,7.20
2022-10-01T21:49:08.781Z,6.80
2022-10-01T21:54:25.211Z,5.90
2022-10-01T21:59:38.687Z,36.90
2022-10-01T22:04:49.637Z,20.50
2022-10-01T22:10:00.611Z,11.90
2022-10-01T22:15:09.173Z,6.70
2022-10-01T22:20:15.346Z,11.70
2022-10-01T22:25:20.814Z,4.50
2022-10-01T22:30:28.989Z,3.50
2022-10-01T22:35:37.110Z,4.10
2022-10-01T22:40:46.105Z,3.40
2022-10-01T22:45:59.594Z,3.30
2022-10-01T22:51:13.582Z,2.80
2022-10-01T22:56:21.566Z,3.50
2022-10-01T23:01:30.501Z,3.80
2022-10-01T23:06:38.339Z,3.00
2022-10-01T23:11:52.925Z,2.40
2022-10-01T23:17:02.240Z,2.30
2022-10-01T23:22:11.913Z,2.10
2022-10-01T23:27:23.422Z,2.20
2022-10-01T23:37:44.533Z,2.20
2022-10-01T23:42:53.990Z,2.10
2022-10-01T23:48:04.598Z,2.10
2022-10-01T23:53:15.380Z,1.80
2022-10-01T23:58:23.239Z,1.80
